createdAt,value
2023-04-02T00:09:15.954Z,8.95
2023-04-02T00:14:33.618Z,7.65
2023-04-02T00:25:19.038Z,8.73
2023-04-02T00:30:22.937Z,6.45
2023-04-02T00:35:29.076Z,8.19
2023-04-02T00:40:42.382Z,7.63
2023-04-02T00:45:56.986Z,6.45
2023-04-02T00:51:14.573Z,8.09
2023-04-02T00:56:27.404Z,6.32
2023-04-02T01:01:37.826Z,8.65
2023-04-02T01:06:43.870Z,6.79
2023-04-02T01:12:32.050Z,7.82
2023-04-02T01:18:13.683Z,8.45
2023-04-02T01:24:08.150Z,7.25
2023-04-02T01:29:29.277Z,8.02
2023-04-02T01:34:33.262Z,6.93
2023-04-02T01:40:08.642Z,8.89
2023-04-02T01:45:17.122Z,6.76
2023-04-02T01:50:19.629Z,8.54
2023-04-02T01:55:44.405Z,7.16
2023-04-02T02:00:55.805Z,7.66
2023-04-02T02:06:03.975Z,8.72
2023-04-02T02:11:14.223Z,6.47
2023-04-02T02:16:18.127Z,8.30
2023-04-02T02:21:50.567Z,8.33
2023-04-02T02:27:16.529Z,7.34
2023-04-02T02:32:23.987Z,7.06
2023-04-02T02:37:34.967Z,7.75
2023-04-02T02:42:49.542Z,7.97
2023-04-02T02:47:57.731Z,6.99
2023-04-02T02:53:17.035Z,9.18
2023-04-02T02:58:27.977Z,6.70
2023-04-02T03:03:34.614Z,9.12
2023-04-02T03:09:04.437Z,8.30
2023-04-02T03:14:24.081Z,6.69
2023-04-02T03:20:01.525Z,8.61
2023-04-02T03:25:37.159Z,6.71
2023-04-02T03:31:04.188Z,8.58
2023-04-02T03:36:19.005Z,6.09
2023-04-02T03:41:42.816Z,8.38
2023-04-02T03:46:58.915Z,7.83
2023-04-02T03:52:14.970Z,7.04
2023-04-02T03:57:38.389Z,8.12
2023-04-02T04:02:52.565Z,6.41
2023-04-02T04:08:06.399Z,8.37
2023-04-02T04:13:20.347Z,6.35
2023-04-02T04:18:41.023Z,8.57
2023-04-02T04:23:51.011Z,7.27
2023-04-02T04:29:24.856Z,6.98
2023-04-02T04:34:47.279Z,8.56
2023-04-02T04:39:59.253Z,6.79
2023-04-02T04:45:12.472Z,7.70
2023-04-02T04:50:30.326Z,7.60
2023-04-02T04:56:18.675Z,7.05
2023-04-02T05:01:44.391Z,7.93
2023-04-02T05:07:15.655Z,6.99
2023-04-02T05:12:42.305Z,7.51
2023-04-02T05:18:30.502Z,7.38
2023-04-02T05:24:05.027Z,7.84
2023-04-02T05:29:26.615Z,6.56
2023-04-02T05:34:39.137Z,8.51
2023-04-02T05:39:46.006Z,7.56
2023-04-02T05:45:26.991Z,6.95
2023-04-02T05:50:37.506Z,7.98
2023-04-02T05:56:01.657Z,7.19
2023-04-02T06:01:17.941Z,7.83
2023-04-02T06:06:46.617Z,6.99
2023-04-02T06:12:13.451Z,7.39
2023-04-02T06:17:19.401Z,7.89
2023-04-02T06:22:38.406Z,6.86
2023-04-02T06:27:44.200Z,8.39
2023-04-02T06:32:48.886Z,7.64
2023-04-02T06:37:57.471Z,7.67
2023-04-02T06:43:11.767Z,8.82
2023-04-02T06:48:22.115Z,7.02
2023-04-02T06:53:36.880Z,8.63
2023-04-02T06:58:39.495Z,7.84
2023-04-02T07:03:44.066Z,7.31
2023-04-02T07:08:48.086Z,8.16
2023-04-02T07:13:51.058Z,7.23
2023-04-02T07:18:56.966Z,8.43
2023-04-02T07:23:59.540Z,7.78
2023-04-02T07:29:08.255Z,7.56
2023-04-02T07:34:11.251Z,8.78
2023-04-02T07:39:16.568Z,6.57
2023-04-02T07:44:19.502Z,8.83
2023-04-02T07:49:26.749Z,7.17
2023-04-02T07:54:33.610Z,8.35
2023-04-02T07:59:36.472Z,9.25
2023-04-02T08:04:39.140Z,7.27
2023-04-02T08:09:41.701Z,8.33
2023-04-02T08:14:44.472Z,6.98
2023-04-02T08:19:55.189Z,8.48
2023-04-02T08:24:58.231Z,7.25
2023-04-02T08:30:01.066Z,8.84
2023-04-02T08:35:06.271Z,8.15
2023-04-02T08:40:31.067Z,7.86
2023-04-02T08:46:22.086Z,8.12
2023-04-02T08:51:30.778Z,8.48
2023-04-02T08:56:47.148Z,8.29
2023-04-02T09:02:39.496Z,7.22
2023-04-02T09:07:42.432Z,7.97
2023-04-02T09:12:52.452Z,7.24
2023-04-02T09:18:11.811Z,8.34
2023-04-02T09:23:21.022Z,7.28
2023-04-02T09:28:24.384Z,8.99
2023-04-02T09:33:48.989Z,7.07
2023-04-02T09:39:06.428Z,9.24
2023-04-02T09:44:30.376Z,7.17
2023-04-02T09:49:37.943Z,8.57
2023-04-02T09:54:43.426Z,6.67
2023-04-02T09:59:47.569Z,8.43
2023-04-02T10:04:50.986Z,7.83
2023-04-02T10:10:29.209Z,7.39
2023-04-02T10:15:42.440Z,8.14
2023-04-02T10:20:52.036Z,7.74
2023-04-02T10:26:50.372Z,8.84
2023-04-02T10:32:14.518Z,7.27
2023-04-02T10:37:53.073Z,9.84
2023-04-02T10:43:36.595Z,8.13
2023-04-02T10:49:27.706Z,8.49
2023-04-02T10:54:44.063Z,8.89
2023-04-02T10:59:56.308Z,7.78
2023-04-02T11:05:07.195Z,9.47
2023-04-02T11:10:19.642Z,7.76
2023-04-02T11:15:38.130Z,6.87
2023-04-02T11:20:50.147Z,9.55
2023-04-02T11:26:28.382Z,9.19
2023-04-02T11:31:32.668Z,7.59
2023-04-02T11:36:53.769Z,6.85
2023-04-02T11:42:21.424Z,6.45
2023-04-02T11:47:29.911Z,8.28
2023-04-02T11:52:45.422Z,8.19
2023-04-02T11:58:20.666Z,7.23
2023-04-02T12:03:59.159Z,6.76
2023-04-02T12:09:22.582Z,6.62
2023-04-02T12:14:46.288Z,6.45
2023-04-02T12:19:52.771Z,6.43
2023-04-02T12:25:18.188Z,6.45
2023-04-02T12:30:23.642Z,6.46
2023-04-02T12:35:34.041Z,6.47
2023-04-02T12:40:38.847Z,6.61
2023-04-02T12:45:41.594Z,6.76
2023-04-02T12:50:47.894Z,6.96
2023-04-02T12:55:53.217Z,7.16
2023-04-02T13:01:20.497Z,7.16
2023-04-02T13:06:27.178Z,7.09
2023-04-02T13:11:38.380Z,6.94
2023-04-02T13:17:08.288Z,6.73
2023-04-02T13:22:31.766Z,6.56
2023-04-02T13:27:34.561Z,6.52
2023-04-02T13:32:39.318Z,6.60
2023-04-02T13:37:42.001Z,6.60
2023-04-02T13:42:47.073Z,6.69
2023-04-02T13:47:50.654Z,6.75
2023-04-02T13:52:57.815Z,6.75
2023-04-02T13:58:00.671Z,6.79
2023-04-02T14:03:13.058Z,6.84
2023-04-02T14:09:09.389Z,6.83
2023-04-02T14:14:42.792Z,6.80
2023-04-02T14:20:14.180Z,6.75
2023-04-02T14:26:02.080Z,6.69
2023-04-02T14:31:43.406Z,6.63
2023-04-02T14:37:34.831Z,6.60
2023-04-02T14:43:03.168Z,6.54
2023-04-02T14:48:21.236Z,6.58
2023-04-02T14:53:37.441Z,6.52
2023-04-02T14:58:48.748Z,6.48
2023-04-02T15:04:06.563Z,6.47
2023-04-02T15:09:26.003Z,6.56
2023-04-02T15:15:01.228Z,6.62
2023-04-02T15:20:15.954Z,6.73
2023-04-02T15:25:42.250Z,6.84
2023-04-02T15:30:47.167Z,6.85
2023-04-02T15:36:05.647Z,6.85
2023-04-02T15:41:46.086Z,6.82
2023-04-02T15:47:18.498Z,6.80
2023-04-02T15:53:03.327Z,6.73
2023-04-02T15:58:24.156Z,6.57
2023-04-02T16:04:12.821Z,6.46
2023-04-02T16:09:30.606Z,6.33
2023-04-02T16:14:46.746Z,6.18
2023-04-02T16:20:17.290Z,6.06
2023-04-02T16:25:24.435Z,5.92
2023-04-02T16:30:44.261Z,5.84
2023-04-02T16:36:27.009Z,5.77
2023-04-02T16:42:32.384Z,5.70
2023-04-02T16:48:12.535Z,5.58
2023-04-02T16:54:00.984Z,5.45
2023-04-02T16:59:33.106Z,5.27
2023-04-02T17:05:07.184Z,5.14
2023-04-02T17:10:31.425Z,5.00
2023-04-02T17:15:39.402Z,4.84
2023-04-02T17:20:42.341Z,4.71
2023-04-02T17:25:58.139Z,4.59
2023-04-02T17:31:01.649Z,4.44
2023-04-02T17:36:15.613Z,4.29
2023-04-02T17:41:42.537Z,4.10
2023-04-02T17:47:16.494Z,3.94
2023-04-02T17:53:01.516Z,3.80
2023-04-02T17:58:40.530Z,3.69
2023-04-02T18:04:01.230Z,3.56
2023-04-02T18:09:29.492Z,3.51
2023-04-02T18:14:48.773Z,3.42
2023-04-02T18:20:03.877Z,3.30
2023-04-02T18:25:55.665Z,3.21
2023-04-02T18:31:29.716Z,3.13
2023-04-02T18:37:01.143Z,3.04
2023-04-02T18:42:45.838Z,2.92
2023-04-02T18:48:04.289Z,2.84
2023-04-02T18:53:20.533Z,2.75
2023-04-02T18:58:33.099Z,2.68
2023-04-02T19:04:08.934Z,2.61
2023-04-02T19:09:26.097Z,2.51
2023-04-02T19:14:31.813Z,2.46
2023-04-02T19:19:56.194Z,2.38
2023-04-02T19:25:44.582Z,2.32
2023-04-02T19:31:23.221Z,2.23
2023-04-02T19:36:48.813Z,2.17
2023-04-02T19:42:00.226Z,2.13
2023-04-02T19:47:03.305Z,2.07
2023-04-02T19:52:08.749Z,1.96
2023-04-02T19:57:17.490Z,3.34
2023-04-02T20:02:20.222Z,5.13
2023-04-02T20:07:23.067Z,3.54
2023-04-02T20:12:28.754Z,2.73
2023-04-02T20:17:31.438Z,2.21
2023-04-02T20:22:34.215Z,2.50
2023-04-02T20:27:36.842Z,5.93
2023-04-02T20:32:41.404Z,4.10
2023-04-02T20:37:49.935Z,2.87
2023-04-02T20:42:53.455Z,2.25
2023-04-02T20:47:56.733Z,1.98
2023-04-02T20:53:03.979Z,4.83
2023-04-02T20:58:06.598Z,4.23
2023-04-02T21:03:11.274Z,2.87
2023-04-02T21:08:14.666Z,2.15
2023-04-02T21:13:17.257Z,1.96
2023-04-02T21:18:19.788Z,5.11
2023-04-02T21:23:24.351Z,4.39
2023-04-02T21:28:28.616Z,2.91
2023-04-02T21:33:38.373Z,2.06
2023-04-02T21:38:47.522Z,1.59
2023-04-02T21:43:50.970Z,2.91
2023-04-02T21:48:59.052Z,5.97
2023-04-02T21:54:03.349Z,3.98
2023-04-02T21:59:09.133Z,2.67
2023-04-02T22:04:24.549Z,1.89
2023-04-02T22:09:29.539Z,4.80
2023-04-02T22:14:36.003Z,5.95
2023-04-02T22:19:38.688Z,3.72
2023-04-02T22:24:41.243Z,2.32
2023-04-02T22:29:43.877Z,1.62
2023-04-02T22:34:46.732Z,4.41
2023-04-02T22:39:49.366Z,4.68
2023-04-02T22:44:58.301Z,2.79
2023-04-02T22:50:02.086Z,1.78
2023-04-02T22:55:06.399Z,1.19
2023-04-02T23:00:15.122Z,0.83
2023-04-02T23:05:17.860Z,1.50
2023-04-02T23:10:23.359Z,4.75
2023-04-02T23:15:31.888Z,2.82
2023-04-02T23:20:37.745Z,1.70
2023-04-02T23:25:41.319Z,1.06
2023-04-02T23:30:44.286Z,0.69
2023-04-02T23:35:47.859Z,0.45
2023-04-02T23:40:50.500Z,0.29
2023-04-02T23:45:57.664Z,0.19
2023-04-02T23:51:00.400Z,0.68
2023-04-02T23:56:03.426Z,4.67
